sensor_id;sensor_type;location;lat;lon;timestamp;temperature;humidity
8002;DHT22;4046;48.774;8.732;2022-12-20T00:00:45;20.40;80.30
8002;DHT22;4046;48.774;8.732;2022-12-20T00:03:11;20.40;80.20
8002;DHT22;4046;48.774;8.732;2022-12-20T00:05:39;20.40;80.20
8002;DHT22;4046;48.774;8.732;2022-12-20T00:08:06;20.40;80.20
8002;DHT22;4046;48.774;8.732;2022-12-20T00:10:40;20.40;80.20
8002;DHT22;4046;48.774;8.732;2022-12-20T00:13:06;20.40;80.20
8002;DHT22;4046;48.774;8.732;2022-12-20T00:15:33;20.40;80.20
8002;DHT22;4046;48.774;8.732;2022-12-20T00:17:59;20.40;80.20
8002;DHT22;4046;48.774;8.732;2022-12-20T00:20:26;20.40;80.20
8002;DHT22;4046;48.774;8.732;2022-12-20T00:22:53;20.40;80.20
8002;DHT22;4046;48.774;8.732;2022-12-20T00:25:20;20.40;80.50
8002;DHT22;4046;48.774;8.732;2022-12-20T00:27:47;20.40;80.10
8002;DHT22;4046;48.774;8.732;2022-12-20T00:30:14;20.40;80.10
8002;DHT22;4046;48.774;8.732;2022-12-20T00:32:40;20.40;80.10
8002;DHT22;4046;48.774;8.732;2022-12-20T00:35:07;20.40;80.10
8002;DHT22;4046;48.774;8.732;2022-12-20T00:37:33;20.40;80.10
8002;DHT22;4046;48.774;8.732;2022-12-20T00:39:59;20.40;80.10
8002;DHT22;4046;48.774;8.732;2022-12-20T00:42:26;20.40;80.10
8002;DHT22;4046;48.774;8.732;2022-12-20T00:44:52;20.40;80.10
8002;DHT22;4046;48.774;8.732;2022-12-20T00:47:18;20.40;80.10
8002;DHT22;4046;48.774;8.732;2022-12-20T00:49:44;20.40;80.00
8002;DHT22;4046;48.774;8.732;2022-12-20T00:52:10;20.40;80.00
8002;DHT22;4046;48.774;8.732;2022-12-20T00:54:37;20.30;80.00
8002;DHT22;4046;48.774;8.732;2022-12-20T00:57:03;20.40;80.10
8002;DHT22;4046;48.774;8.732;2022-12-20T00:59:29;20.40;80.10
8002;DHT22;4046;48.774;8.732;2022-12-20T01:01:55;20.40;80.10
8002;DHT22;4046;48.774;8.732;2022-12-20T01:04:22;20.40;80.00
8002;DHT22;4046;48.774;8.732;2022-12-20T01:06:48;20.40;80.00
8002;DHT22;4046;48.774;8.732;2022-12-20T01:09:14;20.40;80.00
8002;DHT22;4046;48.774;8.732;2022-12-20T01:11:40;20.40;80.00
8002;DHT22;4046;48.774;8.732;2022-12-20T01:14:11;20.40;80.10
8002;DHT22;4046;48.774;8.732;2022-12-20T01:16:40;20.40;80.00
8002;DHT22;4046;48.774;8.732;2022-12-20T01:19:11;20.40;80.00
8002;DHT22;4046;48.774;8.732;2022-12-20T01:21:37;20.40;80.00
8002;DHT22;4046;48.774;8.732;2022-12-20T01:24:17;20.40;80.00
8002;DHT22;4046;48.774;8.732;2022-12-20T01:26:45;20.40;80.00
8002;DHT22;4046;48.774;8.732;2022-12-20T01:29:11;20.30;79.90
8002;DHT22;4046;48.774;8.732;2022-12-20T01:31:38;20.40;80.00
8002;DHT22;4046;48.774;8.732;2022-12-20T01:34:05;20.30;79.90
8002;DHT22;4046;48.774;8.732;2022-12-20T01:36:33;20.40;80.00
8002;DHT22;4046;48.774;8.732;2022-12-20T01:41:32;20.30;79.90
8002;DHT22;4046;48.774;8.732;2022-12-20T01:44:03;20.40;80.00
8002;DHT22;4046;48.774;8.732;2022-12-20T01:46:32;20.30;79.90
8002;DHT22;4046;48.774;8.732;2022-12-20T01:49:04;20.30;79.90
8002;DHT22;4046;48.774;8.732;2022-12-20T01:51:34;20.30;79.90
8002;DHT22;4046;48.774;8.732;2022-12-20T01:54:04;20.30;79.90
8002;DHT22;4046;48.774;8.732;2022-12-20T01:56:31;20.30;79.90
8002;DHT22;4046;48.774;8.732;2022-12-20T01:58:59;20.30;79.90
8002;DHT22;4046;48.774;8.732;2022-12-20T02:01:26;20.30;79.90
8002;DHT22;4046;48.774;8.732;2022-12-20T02:03:53;20.30;79.90
8002;DHT22;4046;48.774;8.732;2022-12-20T02:06:23;20.30;79.90
8002;DHT22;4046;48.774;8.732;2022-12-20T02:08:51;20.30;79.90
8002;DHT22;4046;48.774;8.732;2022-12-20T02:26:19;20.30;79.90
8002;DHT22;4046;48.774;8.732;2022-12-20T02:31:39;20.30;79.90
8002;DHT22;4046;48.774;8.732;2022-12-20T02:34:08;20.30;79.90
8002;DHT22;4046;48.774;8.732;2022-12-20T02:36:35;20.30;79.90
8002;DHT22;4046;48.774;8.732;2022-12-20T02:39:01;20.30;79.90
8002;DHT22;4046;48.774;8.732;2022-12-20T02:41:32;20.30;79.90
8002;DHT22;4046;48.774;8.732;2022-12-20T02:44:13;20.30;79.90
8002;DHT22;4046;48.774;8.732;2022-12-20T02:47:00;20.30;79.90
8002;DHT22;4046;48.774;8.732;2022-12-20T02:49:30;20.30;79.80
8002;DHT22;4046;48.774;8.732;2022-12-20T02:51:58;20.30;79.80
8002;DHT22;4046;48.774;8.732;2022-12-20T02:54:27;20.30;79.80
8002;DHT22;4046;48.774;8.732;2022-12-20T02:57:08;20.30;79.80
8002;DHT22;4046;48.774;8.732;2022-12-20T02:59:42;20.30;79.80
8002;DHT22;4046;48.774;8.732;2022-12-20T03:02:10;20.30;79.90
8002;DHT22;4046;48.774;8.732;2022-12-20T03:04:38;20.30;79.90
8002;DHT22;4046;48.774;8.732;2022-12-20T03:07:09;20.30;79.80
8002;DHT22;4046;48.774;8.732;2022-12-20T03:09:38;20.30;79.80
8002;DHT22;4046;48.774;8.732;2022-12-20T03:12:06;20.30;79.80
8002;DHT22;4046;48.774;8.732;2022-12-20T03:14:33;20.30;79.80
8002;DHT22;4046;48.774;8.732;2022-12-20T03:17:00;20.30;79.80
8002;DHT22;4046;48.774;8.732;2022-12-20T03:19:27;20.30;79.80
8002;DHT22;4046;48.774;8.732;2022-12-20T03:21:53;20.30;79.80
8002;DHT22;4046;48.774;8.732;2022-12-20T03:24:19;20.30;79.80
8002;DHT22;4046;48.774;8.732;2022-12-20T03:26:46;20.30;79.80
8002;DHT22;4046;48.774;8.732;2022-12-20T03:29:12;20.30;79.80
8002;DHT22;4046;48.774;8.732;2022-12-20T03:31:38;20.30;79.80
8002;DHT22;4046;48.774;8.732;2022-12-20T03:34:04;20.30;79.80
8002;DHT22;4046;48.774;8.732;2022-12-20T03:36:31;20.30;79.80
8002;DHT22;4046;48.774;8.732;2022-12-20T03:38:57;20.30;79.80
8002;DHT22;4046;48.774;8.732;2022-12-20T03:41:24;20.30;79.80
8002;DHT22;4046;48.774;8.732;2022-12-20T03:43:51;20.30;79.80
8002;DHT22;4046;48.774;8.732;2022-12-20T03:46:17;20.30;80.50
8002;DHT22;4046;48.774;8.732;2022-12-20T03:48:44;20.30;79.70
8002;DHT22;4046;48.774;8.732;2022-12-20T03:51:10;20.30;79.80
8002;DHT22;4046;48.774;8.732;2022-12-20T03:53:36;20.30;79.70
8002;DHT22;4046;48.774;8.732;2022-12-20T03:56:03;20.30;79.80
8002;DHT22;4046;48.774;8.732;2022-12-20T03:58:29;20.30;79.80
8002;DHT22;4046;48.774;8.732;2022-12-20T04:00:56;20.30;80.50
8002;DHT22;4046;48.774;8.732;2022-12-20T04:03:22;20.30;79.80
8002;DHT22;4046;48.774;8.732;2022-12-20T04:05:48;20.30;79.80
8002;DHT22;4046;48.774;8.732;2022-12-20T04:08:14;20.30;79.70
8002;DHT22;4046;48.774;8.732;2022-12-20T04:10:41;20.30;79.80
8002;DHT22;4046;48.774;8.732;2022-12-20T04:13:25;20.30;79.80
8002;DHT22;4046;48.774;8.732;2022-12-20T04:15:51;20.30;79.80
8002;DHT22;4046;48.774;8.732;2022-12-20T04:18:18;20.30;79.80
8002;DHT22;4046;48.774;8.732;2022-12-20T04:20:44;20.30;79.70
8002;DHT22;4046;48.774;8.732;2022-12-20T04:23:11;20.30;79.70
8002;DHT22;4046;48.774;8.732;2022-12-20T04:25:37;20.30;79.70
8002;DHT22;4046;48.774;8.732;2022-12-20T04:28:03;20.30;79.70
8002;DHT22;4046;48.774;8.732;2022-12-20T04:30:29;20.30;79.70
8002;DHT22;4046;48.774;8.732;2022-12-20T04:32:55;20.30;79.70
8002;DHT22;4046;48.774;8.732;2022-12-20T04:35:21;20.30;79.70
8002;DHT22;4046;48.774;8.732;2022-12-20T04:37:48;20.30;79.70
8002;DHT22;4046;48.774;8.732;2022-12-20T04:40:14;20.30;79.70
8002;DHT22;4046;48.774;8.732;2022-12-20T04:42:40;20.30;79.60
8002;DHT22;4046;48.774;8.732;2022-12-20T04:45:07;20.30;79.70
8002;DHT22;4046;48.774;8.732;2022-12-20T04:47:33;20.40;79.70
8002;DHT22;4046;48.774;8.732;2022-12-20T04:49:59;20.30;79.70
8002;DHT22;4046;48.774;8.732;2022-12-20T04:52:25;20.30;79.70
8002;DHT22;4046;48.774;8.732;2022-12-20T04:55:10;20.30;79.70
8002;DHT22;4046;48.774;8.732;2022-12-20T04:57:36;20.30;79.70
8002;DHT22;4046;48.774;8.732;2022-12-20T05:00:03;20.40;79.80
8002;DHT22;4046;48.774;8.732;2022-12-20T05:02:29;20.30;79.60
8002;DHT22;4046;48.774;8.732;2022-12-20T05:04:55;20.40;79.80
8002;DHT22;4046;48.774;8.732;2022-12-20T05:07:21;20.30;79.70
8002;DHT22;4046;48.774;8.732;2022-12-20T05:09:48;20.30;79.70
8002;DHT22;4046;48.774;8.732;2022-12-20T05:12:14;20.40;79.80
8002;DHT22;4046;48.774;8.732;2022-12-20T05:14:40;20.40;79.80
8002;DHT22;4046;48.774;8.732;2022-12-20T05:17:06;20.40;79.70
8002;DHT22;4046;48.774;8.732;2022-12-20T05:19:34;20.40;79.70
8002;DHT22;4046;48.774;8.732;2022-12-20T05:22:00;20.30;79.60
8002;DHT22;4046;48.774;8.732;2022-12-20T05:24:45;20.30;79.60
8002;DHT22;4046;48.774;8.732;2022-12-20T05:27:30;20.40;79.70
8002;DHT22;4046;48.774;8.732;2022-12-20T05:29:56;20.40;79.70
8002;DHT22;4046;48.774;8.732;2022-12-20T05:32:22;20.30;79.60
8002;DHT22;4046;48.774;8.732;2022-12-20T05:34:48;20.40;79.70
8002;DHT22;4046;48.774;8.732;2022-12-20T05:37:14;20.40;79.70
8002;DHT22;4046;48.774;8.732;2022-12-20T05:39:41;20.40;79.80
8002;DHT22;4046;48.774;8.732;2022-12-20T05:42:07;20.30;79.60
8002;DHT22;4046;48.774;8.732;2022-12-20T05:44:33;20.30;79.60
8002;DHT22;4046;48.774;8.732;2022-12-20T05:46:59;20.40;79.70
8002;DHT22;4046;48.774;8.732;2022-12-20T05:49:25;20.30;79.60
8002;DHT22;4046;48.774;8.732;2022-12-20T05:51:52;20.40;79.70
8002;DHT22;4046;48.774;8.732;2022-12-20T05:54:18;20.30;79.60
8002;DHT22;4046;48.774;8.732;2022-12-20T05:56:44;20.40;79.70
8002;DHT22;4046;48.774;8.732;2022-12-20T05:59:10;20.30;79.60
8002;DHT22;4046;48.774;8.732;2022-12-20T06:01:37;20.30;79.60
8002;DHT22;4046;48.774;8.732;2022-12-20T06:04:03;20.30;79.60
8002;DHT22;4046;48.774;8.732;2022-12-20T06:06:30;20.30;79.60
8002;DHT22;4046;48.774;8.732;2022-12-20T06:08:56;20.40;79.70
8002;DHT22;4046;48.774;8.732;2022-12-20T06:11:22;20.30;79.60
8002;DHT22;4046;48.774;8.732;2022-12-20T06:13:48;20.40;79.70
8002;DHT22;4046;48.774;8.732;2022-12-20T06:16:14;20.30;79.60
8002;DHT22;4046;48.774;8.732;2022-12-20T06:18:40;20.40;79.70
8002;DHT22;4046;48.774;8.732;2022-12-20T06:21:07;20.30;79.60
8002;DHT22;4046;48.774;8.732;2022-12-20T06:23:33;20.40;79.70
8002;DHT22;4046;48.774;8.732;2022-12-20T06:25:59;20.40;79.70
8002;DHT22;4046;48.774;8.732;2022-12-20T06:28:25;20.30;79.60
8002;DHT22;4046;48.774;8.732;2022-12-20T06:30:55;20.40;79.70
8002;DHT22;4046;48.774;8.732;2022-12-20T06:33:22;20.40;79.70
8002;DHT22;4046;48.774;8.732;2022-12-20T06:35:49;20.30;79.60
8002;DHT22;4046;48.774;8.732;2022-12-20T06:38:15;20.30;79.60
8002;DHT22;4046;48.774;8.732;2022-12-20T06:40:41;20.30;79.60
8002;DHT22;4046;48.774;8.732;2022-12-20T06:43:08;20.30;79.60
8002;DHT22;4046;48.774;8.732;2022-12-20T06:45:34;20.30;79.60
8002;DHT22;4046;48.774;8.732;2022-12-20T06:48:00;20.30;79.60
8002;DHT22;4046;48.774;8.732;2022-12-20T06:50:26;20.30;79.60
8002;DHT22;4046;48.774;8.732;2022-12-20T06:52:53;20.30;79.60
8002;DHT22;4046;48.774;8.732;2022-12-20T06:55:19;20.30;79.70
8002;DHT22;4046;48.774;8.732;2022-12-20T06:57:45;20.30;79.70
8002;DHT22;4046;48.774;8.732;2022-12-20T07:00:12;20.30;79.70
8002;DHT22;4046;48.774;8.732;2022-12-20T07:02:38;20.20;79.60
8002;DHT22;4046;48.774;8.732;2022-12-20T07:05:05;20.30;79.60
8002;DHT22;4046;48.774;8.732;2022-12-20T07:07:31;20.20;79.50
8002;DHT22;4046;48.774;8.732;2022-12-20T07:09:57;20.30;79.60
8002;DHT22;4046;48.774;8.732;2022-12-20T07:12:24;20.30;79.70
8002;DHT22;4046;48.774;8.732;2022-12-20T07:14:50;20.30;79.60
8002;DHT22;4046;48.774;8.732;2022-12-20T07:17:16;20.30;79.60
8002;DHT22;4046;48.774;8.732;2022-12-20T07:19:43;20.30;79.60
8002;DHT22;4046;48.774;8.732;2022-12-20T07:22:09;20.30;79.60
8002;DHT22;4046;48.774;8.732;2022-12-20T07:24:35;20.30;79.60
8002;DHT22;4046;48.774;8.732;2022-12-20T07:27:01;20.30;79.60
8002;DHT22;4046;48.774;8.732;2022-12-20T07:29:28;20.30;79.90
8002;DHT22;4046;48.774;8.732;2022-12-20T07:31:54;20.30;79.60
8002;DHT22;4046;48.774;8.732;2022-12-20T07:34:20;20.30;79.60
8002;DHT22;4046;48.774;8.732;2022-12-20T07:36:47;20.40;79.60
8002;DHT22;4046;48.774;8.732;2022-12-20T07:39:13;20.40;79.70
8002;DHT22;4046;48.774;8.732;2022-12-20T07:41:39;20.30;79.50
8002;DHT22;4046;48.774;8.732;2022-12-20T07:44:06;20.40;79.60
8002;DHT22;4046;48.774;8.732;2022-12-20T07:46:32;20.30;79.60
8002;DHT22;4046;48.774;8.732;2022-12-20T07:48:58;20.30;79.60
8002;DHT22;4046;48.774;8.732;2022-12-20T07:51:35;20.30;79.70
8002;DHT22;4046;48.774;8.732;2022-12-20T07:54:32;20.30;79.70
8002;DHT22;4046;48.774;8.732;2022-12-20T07:57:08;20.30;79.70
8002;DHT22;4046;48.774;8.732;2022-12-20T07:59:39;20.20;79.60
8002;DHT22;4046;48.774;8.732;2022-12-20T08:02:14;20.20;79.60
8002;DHT22;4046;48.774;8.732;2022-12-20T08:04:42;20.20;79.70
8002;DHT22;4046;48.774;8.732;2022-12-20T08:07:09;20.10;79.60
8002;DHT22;4046;48.774;8.732;2022-12-20T08:09:37;20.10;79.60
8002;DHT22;4046;48.774;8.732;2022-12-20T08:12:06;20.10;79.60
8002;DHT22;4046;48.774;8.732;2022-12-20T08:14:34;20.20;79.70
8002;DHT22;4046;48.774;8.732;2022-12-20T08:17:00;20.20;79.70
8002;DHT22;4046;48.774;8.732;2022-12-20T08:19:26;20.10;79.60
8002;DHT22;4046;48.774;8.732;2022-12-20T08:21:53;20.10;79.60
8002;DHT22;4046;48.774;8.732;2022-12-20T08:24:19;20.10;79.60
8002;DHT22;4046;48.774;8.732;2022-12-20T08:26:45;20.10;79.70
8002;DHT22;4046;48.774;8.732;2022-12-20T08:29:11;20.10;79.70
8002;DHT22;4046;48.774;8.732;2022-12-20T08:31:39;20.10;79.70
8002;DHT22;4046;48.774;8.732;2022-12-20T08:34:07;20.10;79.60
8002;DHT22;4046;48.774;8.732;2022-12-20T08:36:34;20.10;79.70
8002;DHT22;4046;48.774;8.732;2022-12-20T08:39:05;20.10;79.70
8002;DHT22;4046;48.774;8.732;2022-12-20T08:41:33;20.10;79.70
8002;DHT22;4046;48.774;8.732;2022-12-20T08:43:59;20.10;79.70
8002;DHT22;4046;48.774;8.732;2022-12-20T08:46:25;20.10;79.70
8002;DHT22;4046;48.774;8.732;2022-12-20T08:48:51;20.10;79.70
8002;DHT22;4046;48.774;8.732;2022-12-20T08:51:18;20.10;79.60
8002;DHT22;4046;48.774;8.732;2022-12-20T08:53:44;20.10;79.60
8002;DHT22;4046;48.774;8.732;2022-12-20T08:56:15;20.10;79.60
8002;DHT22;4046;48.774;8.732;2022-12-20T08:58:42;20.10;79.60
8002;DHT22;4046;48.774;8.732;2022-12-20T09:01:11;20.10;80.40
8002;DHT22;4046;48.774;8.732;2022-12-20T09:03:38;20.10;79.60
8002;DHT22;4046;48.774;8.732;2022-12-20T09:06:07;20.10;79.60
8002;DHT22;4046;48.774;8.732;2022-12-20T09:08:35;20.10;79.60
8002;DHT22;4046;48.774;8.732;2022-12-20T09:13:33;20.10;79.60
8002;DHT22;4046;48.774;8.732;2022-12-20T09:16:01;20.20;79.60
8002;DHT22;4046;48.774;8.732;2022-12-20T09:18:28;20.20;79.60
8002;DHT22;4046;48.774;8.732;2022-12-20T09:20:54;20.20;79.60
8002;DHT22;4046;48.774;8.732;2022-12-20T09:23:20;20.20;79.50
8002;DHT22;4046;48.774;8.732;2022-12-20T09:25:46;20.20;79.40
8002;DHT22;4046;48.774;8.732;2022-12-20T09:28:13;20.20;79.40
8002;DHT22;4046;48.774;8.732;2022-12-20T09:30:39;20.20;79.40
8002;DHT22;4046;48.774;8.732;2022-12-20T09:33:05;20.30;79.50
8002;DHT22;4046;48.774;8.732;2022-12-20T09:35:31;20.40;79.30
8002;DHT22;4046;48.774;8.732;2022-12-20T09:37:58;20.30;79.20
8002;DHT22;4046;48.774;8.732;2022-12-20T09:40:29;20.40;79.40
8002;DHT22;4046;48.774;8.732;2022-12-20T09:42:57;20.30;79.40
8002;DHT22;4046;48.774;8.732;2022-12-20T09:45:27;20.30;79.50
8002;DHT22;4046;48.774;8.732;2022-12-20T09:47:54;20.30;79.60
8002;DHT22;4046;48.774;8.732;2022-12-20T09:50:38;20.30;80.80
8002;DHT22;4046;48.774;8.732;2022-12-20T09:56:18;20.20;80.30
8002;DHT22;4046;48.774;8.732;2022-12-20T10:01:24;20.20;80.20
8002;DHT22;4046;48.774;8.732;2022-12-20T10:03:52;20.20;80.30
8002;DHT22;4046;48.774;8.732;2022-12-20T10:06:32;20.20;80.30
8002;DHT22;4046;48.774;8.732;2022-12-20T10:09:09;20.20;80.30
8002;DHT22;4046;48.774;8.732;2022-12-20T10:15:03;20.20;80.30
8002;DHT22;4046;48.774;8.732;2022-12-20T10:17:52;20.20;80.30
8002;DHT22;4046;48.774;8.732;2022-12-20T10:23:39;20.30;80.40
8002;DHT22;4046;48.774;8.732;2022-12-20T10:26:11;20.30;80.40
8002;DHT22;4046;48.774;8.732;2022-12-20T10:28:38;20.20;80.30
8002;DHT22;4046;48.774;8.732;2022-12-20T10:31:10;20.30;80.50
8002;DHT22;4046;48.774;8.732;2022-12-20T10:33:37;20.30;80.50
8002;DHT22;4046;48.774;8.732;2022-12-20T10:36:22;20.30;80.50
8002;DHT22;4046;48.774;8.732;2022-12-20T10:38:52;20.30;80.50
8002;DHT22;4046;48.774;8.732;2022-12-20T10:41:24;20.30;81.20
8002;DHT22;4046;48.774;8.732;2022-12-20T10:43:58;20.30;80.90
8002;DHT22;4046;48.774;8.732;2022-12-20T10:46:46;20.30;81.10
8002;DHT22;4046;48.774;8.732;2022-12-20T10:49:36;20.30;81.20
8002;DHT22;4046;48.774;8.732;2022-12-20T10:54:40;20.30;81.30
8002;DHT22;4046;48.774;8.732;2022-12-20T10:57:21;20.40;81.40
8002;DHT22;4046;48.774;8.732;2022-12-20T11:00:00;20.30;81.40
8002;DHT22;4046;48.774;8.732;2022-12-20T11:02:33;20.30;81.40
8002;DHT22;4046;48.774;8.732;2022-12-20T11:05:22;20.40;81.50
8002;DHT22;4046;48.774;8.732;2022-12-20T11:07:58;20.40;81.50
8002;DHT22;4046;48.774;8.732;2022-12-20T11:10:27;20.40;81.50
8002;DHT22;4046;48.774;8.732;2022-12-20T11:12:59;20.50;81.60
8002;DHT22;4046;48.774;8.732;2022-12-20T11:15:28;20.40;81.40
8002;DHT22;4046;48.774;8.732;2022-12-20T11:18:06;20.40;81.50
8002;DHT22;4046;48.774;8.732;2022-12-20T11:20:44;20.40;81.60
8002;DHT22;4046;48.774;8.732;2022-12-20T11:26:23;20.40;81.70
8002;DHT22;4046;48.774;8.732;2022-12-20T11:29:05;20.40;81.80
8002;DHT22;4046;48.774;8.732;2022-12-20T11:32:07;20.40;81.80
8002;DHT22;4046;48.774;8.732;2022-12-20T11:34:47;20.40;81.70
8002;DHT22;4046;48.774;8.732;2022-12-20T11:37:23;20.40;81.70
8002;DHT22;4046;48.774;8.732;2022-12-20T11:40:10;20.40;81.90
8002;DHT22;4046;48.774;8.732;2022-12-20T11:53:53;20.40;82.00
8002;DHT22;4046;48.774;8.732;2022-12-20T11:56:27;20.50;82.00
8002;DHT22;4046;48.774;8.732;2022-12-20T11:59:00;20.50;82.10
8002;DHT22;4046;48.774;8.732;2022-12-20T12:01:39;20.50;82.00
8002;DHT22;4046;48.774;8.732;2022-12-20T12:04:21;20.50;82.10
8002;DHT22;4046;48.774;8.732;2022-12-20T12:06:58;20.50;82.00
8002;DHT22;4046;48.774;8.732;2022-12-20T12:09:35;20.50;82.00
8002;DHT22;4046;48.774;8.732;2022-12-20T12:12:24;20.50;82.00
8002;DHT22;4046;48.774;8.732;2022-12-20T12:17:33;20.50;82.10
8002;DHT22;4046;48.774;8.732;2022-12-20T12:20:19;20.50;82.10
8002;DHT22;4046;48.774;8.732;2022-12-20T12:22:49;20.60;82.10
8002;DHT22;4046;48.774;8.732;2022-12-20T12:25:17;20.60;82.20
8002;DHT22;4046;48.774;8.732;2022-12-20T12:27:44;20.60;82.20
8002;DHT22;4046;48.774;8.732;2022-12-20T12:30:14;20.60;82.20
8002;DHT22;4046;48.774;8.732;2022-12-20T12:33:02;20.60;82.20
8002;DHT22;4046;48.774;8.732;2022-12-20T12:35:37;20.60;82.30
8002;DHT22;4046;48.774;8.732;2022-12-20T12:38:49;20.60;82.30
8002;DHT22;4046;48.774;8.732;2022-12-20T12:41:33;20.60;82.30
8002;DHT22;4046;48.774;8.732;2022-12-20T12:44:32;20.60;82.40
8002;DHT22;4046;48.774;8.732;2022-12-20T12:47:05;20.50;82.40
8002;DHT22;4046;48.774;8.732;2022-12-20T12:49:33;20.50;82.40
8002;DHT22;4046;48.774;8.732;2022-12-20T12:52:02;20.50;82.30
8002;DHT22;4046;48.774;8.732;2022-12-20T12:54:40;20.50;82.40
8002;DHT22;4046;48.774;8.732;2022-12-20T12:57:12;20.50;82.50
8002;DHT22;4046;48.774;8.732;2022-12-20T12:59:48;20.50;82.40
8002;DHT22;4046;48.774;8.732;2022-12-20T13:04:58;20.50;82.50
8002;DHT22;4046;48.774;8.732;2022-12-20T13:09:53;20.50;82.70
8002;DHT22;4046;48.774;8.732;2022-12-20T13:17:47;20.50;83.50
8002;DHT22;4046;48.774;8.732;2022-12-20T13:20:35;20.50;83.70
8002;DHT22;4046;48.774;8.732;2022-12-20T13:23:13;20.50;84.10
8002;DHT22;4046;48.774;8.732;2022-12-20T13:25:47;20.50;84.20
8002;DHT22;4046;48.774;8.732;2022-12-20T13:30:42;20.60;84.40
8002;DHT22;4046;48.774;8.732;2022-12-20T13:36:29;20.50;84.10
8002;DHT22;4046;48.774;8.732;2022-12-20T13:38:58;20.40;84.60
8002;DHT22;4046;48.774;8.732;2022-12-20T13:41:35;20.40;84.90
8002;DHT22;4046;48.774;8.732;2022-12-20T13:46:46;20.50;84.80
8002;DHT22;4046;48.774;8.732;2022-12-20T13:49:24;20.50;84.80
8002;DHT22;4046;48.774;8.732;2022-12-20T13:54:41;20.50;84.80
8002;DHT22;4046;48.774;8.732;2022-12-20T13:57:14;20.50;84.80
8002;DHT22;4046;48.774;8.732;2022-12-20T13:59:47;20.50;84.80
8002;DHT22;4046;48.774;8.732;2022-12-20T14:02:20;20.50;84.80
8002;DHT22;4046;48.774;8.732;2022-12-20T14:04:55;20.50;84.70
8002;DHT22;4046;48.774;8.732;2022-12-20T14:07:22;20.60;84.80
8002;DHT22;4046;48.774;8.732;2022-12-20T14:09:56;20.60;84.90
8002;DHT22;4046;48.774;8.732;2022-12-20T14:12:22;20.60;84.90
8002;DHT22;4046;48.774;8.732;2022-12-20T14:14:50;20.60;84.80
8002;DHT22;4046;48.774;8.732;2022-12-20T14:17:28;20.60;85.70
8002;DHT22;4046;48.774;8.732;2022-12-20T14:22:30;20.60;84.80
8002;DHT22;4046;48.774;8.732;2022-12-20T14:24:57;20.60;84.90
8002;DHT22;4046;48.774;8.732;2022-12-20T14:27:25;20.50;84.70
8002;DHT22;4046;48.774;8.732;2022-12-20T14:29:53;20.60;84.70
8002;DHT22;4046;48.774;8.732;2022-12-20T14:32:20;20.50;84.60
8002;DHT22;4046;48.774;8.732;2022-12-20T14:34:48;20.60;84.70
8002;DHT22;4046;48.774;8.732;2022-12-20T14:37:32;20.50;84.60
8002;DHT22;4046;48.774;8.732;2022-12-20T14:42:36;20.50;84.50
8002;DHT22;4046;48.774;8.732;2022-12-20T14:47:34;20.40;84.30
8002;DHT22;4046;48.774;8.732;2022-12-20T14:50:04;20.50;84.30
8002;DHT22;4046;48.774;8.732;2022-12-20T14:52:37;20.50;84.20
8002;DHT22;4046;48.774;8.732;2022-12-20T14:55:13;20.40;84.00
8002;DHT22;4046;48.774;8.732;2022-12-20T14:57:47;20.40;84.00
8002;DHT22;4046;48.774;8.732;2022-12-20T15:00:27;20.40;83.90
8002;DHT22;4046;48.774;8.732;2022-12-20T15:03:01;20.40;83.90
8002;DHT22;4046;48.774;8.732;2022-12-20T15:10:48;20.40;83.80
8002;DHT22;4046;48.774;8.732;2022-12-20T15:13:17;20.40;83.80
8002;DHT22;4046;48.774;8.732;2022-12-20T15:15:44;20.40;83.70
8002;DHT22;4046;48.774;8.732;2022-12-20T15:18:20;20.40;83.70
8002;DHT22;4046;48.774;8.732;2022-12-20T15:20:59;20.40;83.90
8002;DHT22;4046;48.774;8.732;2022-12-20T15:23:26;20.40;84.00
8002;DHT22;4046;48.774;8.732;2022-12-20T15:25:53;20.40;83.90
8002;DHT22;4046;48.774;8.732;2022-12-20T15:28:24;20.30;83.70
8002;DHT22;4046;48.774;8.732;2022-12-20T15:30:52;20.30;83.70
8002;DHT22;4046;48.774;8.732;2022-12-20T15:33:21;20.30;83.60
8002;DHT22;4046;48.774;8.732;2022-12-20T15:35:48;20.30;83.60
8002;DHT22;4046;48.774;8.732;2022-12-20T15:38:20;20.40;83.60
8002;DHT22;4046;48.774;8.732;2022-12-20T15:40:49;20.30;83.50
8002;DHT22;4046;48.774;8.732;2022-12-20T15:43:18;20.30;83.50
8002;DHT22;4046;48.774;8.732;2022-12-20T15:45:47;20.30;83.50
8002;DHT22;4046;48.774;8.732;2022-12-20T15:48:18;20.30;83.40
8002;DHT22;4046;48.774;8.732;2022-12-20T15:51:50;20.30;83.40
8002;DHT22;4046;48.774;8.732;2022-12-20T15:53:56;20.20;83.30
8002;DHT22;4046;48.774;8.732;2022-12-20T15:56:24;20.20;83.20
8002;DHT22;4046;48.774;8.732;2022-12-20T15:58:51;20.30;83.30
8002;DHT22;4046;48.774;8.732;2022-12-20T16:01:25;20.20;83.20
8002;DHT22;4046;48.774;8.732;2022-12-20T16:03:51;20.20;83.10
8002;DHT22;4046;48.774;8.732;2022-12-20T16:06:17;20.30;83.20
8002;DHT22;4046;48.774;8.732;2022-12-20T16:08:44;20.30;83.20
8002;DHT22;4046;48.774;8.732;2022-12-20T16:11:25;20.20;83.10
8002;DHT22;4046;48.774;8.732;2022-12-20T16:13:54;20.20;83.00
8002;DHT22;4046;48.774;8.732;2022-12-20T16:16:31;20.30;83.10
8002;DHT22;4046;48.774;8.732;2022-12-20T16:18:58;20.20;83.10
8002;DHT22;4046;48.774;8.732;2022-12-20T16:21:35;20.20;83.00
8002;DHT22;4046;48.774;8.732;2022-12-20T16:24:08;20.20;83.00
8002;DHT22;4046;48.774;8.732;2022-12-20T16:26:35;20.30;83.10
8002;DHT22;4046;48.774;8.732;2022-12-20T16:29:01;20.30;83.10
8002;DHT22;4046;48.774;8.732;2022-12-20T16:34:00;20.30;83.10
8002;DHT22;4046;48.774;8.732;2022-12-20T16:36:28;20.30;83.00
8002;DHT22;4046;48.774;8.732;2022-12-20T16:38:54;20.30;83.00
8002;DHT22;4046;48.774;8.732;2022-12-20T16:41:24;20.30;82.90
8002;DHT22;4046;48.774;8.732;2022-12-20T16:43:50;20.30;82.90
8002;DHT22;4046;48.774;8.732;2022-12-20T16:46:19;20.30;82.90
8002;DHT22;4046;48.774;8.732;2022-12-20T16:48:46;20.30;82.90
8002;DHT22;4046;48.774;8.732;2022-12-20T16:51:46;20.30;82.90
8002;DHT22;4046;48.774;8.732;2022-12-20T16:54:18;20.30;82.90
8002;DHT22;4046;48.774;8.732;2022-12-20T16:56:45;20.30;82.80
8002;DHT22;4046;48.774;8.732;2022-12-20T16:59:12;20.30;82.80
8002;DHT22;4046;48.774;8.732;2022-12-20T17:01:39;20.40;82.90
8002;DHT22;4046;48.774;8.732;2022-12-20T17:04:13;20.40;82.80
8002;DHT22;4046;48.774;8.732;2022-12-20T17:06:40;20.40;82.80
8002;DHT22;4046;48.774;8.732;2022-12-20T17:09:07;20.40;82.70
8002;DHT22;4046;48.774;8.732;2022-12-20T17:11:33;20.50;82.80
8002;DHT22;4046;48.774;8.732;2022-12-20T17:13:59;20.50;82.80
8002;DHT22;4046;48.774;8.732;2022-12-20T17:16:26;20.50;82.80
8002;DHT22;4046;48.774;8.732;2022-12-20T17:18:54;20.50;82.80
8002;DHT22;4046;48.774;8.732;2022-12-20T17:24:22;20.50;82.70
8002;DHT22;4046;48.774;8.732;2022-12-20T17:26:49;20.50;82.70
8002;DHT22;4046;48.774;8.732;2022-12-20T17:29:16;20.60;82.80
8002;DHT22;4046;48.774;8.732;2022-12-20T17:31:44;20.50;82.70
8002;DHT22;4046;48.774;8.732;2022-12-20T17:34:19;20.50;82.70
8002;DHT22;4046;48.774;8.732;2022-12-20T17:36:46;20.60;82.80
8002;DHT22;4046;48.774;8.732;2022-12-20T17:39:13;20.60;82.80
8002;DHT22;4046;48.774;8.732;2022-12-20T17:41:40;20.60;82.70
8002;DHT22;4046;48.774;8.732;2022-12-20T17:44:16;20.50;82.70
8002;DHT22;4046;48.774;8.732;2022-12-20T17:46:43;20.50;82.70
8002;DHT22;4046;48.774;8.732;2022-12-20T17:49:09;20.60;82.90
8002;DHT22;4046;48.774;8.732;2022-12-20T17:51:35;20.50;82.80
8002;DHT22;4046;48.774;8.732;2022-12-20T17:54:02;20.50;82.80